Estación de Yerbas Buenas
Ultimos registro cada 15 minutos 59
| N° | Estación | Fecha / Hora | Temperatura | Humedad | Lluvia | Velocidad | Dirección | Radiación | Presion |
| 59 | Yerbas Buenas | 03-05-2026 14:30 | 16 | 68,2 | 0 | 0 | 81 | 224,4 | 1000,1 |
| 58 | Yerbas Buenas | 03-05-2026 14:15 | 15,7 | 69 | 0 | 0 | 83 | 174,4 | 1000,6 |
| 57 | Yerbas Buenas | 03-05-2026 14:00 | 15,4 | 67,3 | 0 | 0 | 94 | 130,6 | 1000,6 |
| 56 | Yerbas Buenas | 03-05-2026 13:45 | 15,8 | 67,3 | 0 | 0 | 94 | 198,1 | 1000,4 |
| 55 | Yerbas Buenas | 03-05-2026 13:30 | 15,5 | 67,9 | 0 | 0 | 44 | 201,9 | 1000,9 |
| 54 | Yerbas Buenas | 03-05-2026 13:15 | 16 | 66,4 | 0 | 0 | 15 | 249,4 | 1000,9 |
| 53 | Yerbas Buenas | 03-05-2026 13:00 | 15,4 | 68,7 | 0 | 0 | 11 | 273,1 | 1000,9 |
| 52 | Yerbas Buenas | 03-05-2026 12:45 | 14,9 | 68,9 | 0 | 0 | 316 | 213,1 | 1001,2 |
| 51 | Yerbas Buenas | 03-05-2026 12:30 | 14,6 | 70,8 | 0 | 0 | 298 | 241,9 | 1001,1 |
| 50 | Yerbas Buenas | 03-05-2026 12:15 | 14,1 | 72,2 | 0 | 0 | 299 | 186,9 | 1001 |
| 49 | Yerbas Buenas | 03-05-2026 12:00 | 14,3 | 70,2 | 0 | 0 | 305 | 176,9 | 1001 |
| 48 | Yerbas Buenas | 03-05-2026 11:45 | 14,6 | 69,9 | 0 | 0 | 324 | 240,6 | 1000,8 |
| 47 | Yerbas Buenas | 03-05-2026 11:30 | 14,2 | 71,3 | 0 | 0 | 343 | 209,4 | 1000,8 |
| 46 | Yerbas Buenas | 03-05-2026 11:15 | 14,1 | 72,5 | 0 | 0 | 309 | 269,4 | 1001 |
| 45 | Yerbas Buenas | 03-05-2026 11:00 | 13,5 | 74,3 | 0 | 0 | 316 | 241,9 | 1001,1 |
| 44 | Yerbas Buenas | 03-05-2026 10:45 | 13,3 | 75,1 | 0 | 0 | 341 | 201,9 | 1001,2 |
| 43 | Yerbas Buenas | 03-05-2026 10:30 | 13,6 | 75,7 | 0 | 0 | 22 | 244,4 | 1001,3 |
| 42 | Yerbas Buenas | 03-05-2026 10:15 | 14,5 | 72,6 | 0 | 0 | 76 | 250,6 | 1000,9 |
| 41 | Yerbas Buenas | 03-05-2026 10:00 | 13,1 | 75,4 | 0 | 0 | 93 | 394,4 | 1001 |
| 40 | Yerbas Buenas | 03-05-2026 09:45 | 10,6 | 83,4 | 0 | 0 | 232 | 351,9 | 1001,2 |
| 39 | Yerbas Buenas | 03-05-2026 09:30 | 10,6 | 84,3 | 0 | 0 | 232 | 336,9 | 1001,3 |
| 38 | Yerbas Buenas | 03-05-2026 09:15 | 8,1 | 90,3 | 0 | 0 | 232 | 249,4 | 1001,3 |
| 37 | Yerbas Buenas | 03-05-2026 09:00 | 6,4 | 92,1 | 0 | 0 | 232 | 96,9 | 1001,4 |
| 36 | Yerbas Buenas | 03-05-2026 08:45 | 6 | 92,3 | 0 | 0 | 232 | 98,1 | 1001,1 |
| 35 | Yerbas Buenas | 03-05-2026 08:30 | 6,2 | 93,9 | 0 | 0 | 232 | 134,4 | 1000,9 |
| 34 | Yerbas Buenas | 03-05-2026 08:15 | 3,6 | 93,9 | 0 | 0 | 232 | 74,4 | 1000,9 |
| 33 | Yerbas Buenas | 03-05-2026 08:00 | 2,9 | 93,9 | 0 | 0 | 232 | 83,1 | 1000,9 |
| 32 | Yerbas Buenas | 03-05-2026 07:45 | 1,8 | 93,9 | 0 | 0 | 232 | 28,1 | 1000,7 |
| 31 | Yerbas Buenas | 03-05-2026 07:30 | 1,3 | 93,8 | 0 | 0 | 232 | 8,1 | 1000,6 |
| 30 | Yerbas Buenas | 03-05-2026 07:15 | 0,8 | 93,7 | 0 | 0 | 232 | 0,6 | 1000,6 |
| 29 | Yerbas Buenas | 03-05-2026 07:00 | 0,6 | 93,7 | 0 | 0 | 232 | 0,6 | 1000,6 |
| 28 | Yerbas Buenas | 03-05-2026 06:45 | 0,8 | 93,7 | 0 | 0 | 232 | 0,6 | 1000,4 |
| 27 | Yerbas Buenas | 03-05-2026 06:30 | 1 | 93,7 | 0 | 0 | 232 | 0,6 | 1000,4 |
| 26 | Yerbas Buenas | 03-05-2026 06:15 | 0,8 | 93,7 | 0 | 0 | 232 | 0,6 | 1000,1 |
| 25 | Yerbas Buenas | 03-05-2026 06:00 | 0,4 | 93,7 | 0 | 0 | 232 | 0,6 | 1000,3 |
| 24 | Yerbas Buenas | 03-05-2026 05:45 | 0,4 | 93,5 | 0 | 0 | 232 | 0,6 | 1000,1 |
| 23 | Yerbas Buenas | 03-05-2026 05:30 | 0,5 | 93,6 | 0 | 0 | 232 | 0,6 | 999,8 |
| 22 | Yerbas Buenas | 03-05-2026 05:15 | 0,6 | 93,5 | 0 | 0 | 232 | 0,6 | 999,7 |
| 21 | Yerbas Buenas | 03-05-2026 05:00 | 1,3 | 93,6 | 0 | 0 | 232 | 0,6 | 999,9 |
| 20 | Yerbas Buenas | 03-05-2026 04:45 | 0,9 | 93,5 | 0 | 0 | 232 | 0,6 | 999,9 |
| 19 | Yerbas Buenas | 03-05-2026 04:30 | 0,7 | 93,4 | 0 | 0 | 232 | 0,6 | 1000,2 |
| 18 | Yerbas Buenas | 03-05-2026 04:15 | 0,8 | 93,4 | 0 | 0 | 232 | 0,6 | 1000,4 |
| 17 | Yerbas Buenas | 03-05-2026 04:00 | 0,8 | 93,4 | 0 | 0 | 232 | 0,6 | 1000,4 |
| 16 | Yerbas Buenas | 03-05-2026 03:45 | 1,1 | 93,4 | 0 | 0 | 232 | 0,6 | 1000,4 |
| 15 | Yerbas Buenas | 03-05-2026 03:30 | 1,1 | 93,4 | 0 | 0 | 232 | 0,6 | 1000,3 |
| 14 | Yerbas Buenas | 03-05-2026 03:15 | 1,3 | 93,4 | 0 | 0 | 232 | 0,6 | 1000,3 |
| 13 | Yerbas Buenas | 03-05-2026 03:00 | 1,2 | 93,3 | 0 | 0 | 232 | 0,6 | 1000,5 |
| 12 | Yerbas Buenas | 03-05-2026 02:45 | 1,7 | 93,3 | 0 | 0 | 232 | 0,6 | 1000,8 |
| 11 | Yerbas Buenas | 03-05-2026 02:30 | 1,8 | 93,3 | 0 | 0 | 232 | 0,6 | 1000,8 |
| 10 | Yerbas Buenas | 03-05-2026 02:15 | 2,1 | 93,3 | 0 | 0 | 232 | 0,6 | 1000,8 |
| 9 | Yerbas Buenas | 03-05-2026 02:00 | 2 | 93,2 | 0 | 0 | 232 | 0,6 | 1000,9 |
| 8 | Yerbas Buenas | 03-05-2026 01:45 | 2,6 | 93,2 | 0 | 0 | 232 | 0,6 | 1001 |
| 7 | Yerbas Buenas | 03-05-2026 01:30 | 2,2 | 93,2 | 0 | 0 | 232 | 0,6 | 1000,8 |
| 6 | Yerbas Buenas | 03-05-2026 01:15 | 2,7 | 93,2 | 0 | 0 | 232 | 0,6 | 1001,1 |
| 5 | Yerbas Buenas | 03-05-2026 01:00 | 2,8 | 93,1 | 0 | 0 | 232 | 0,6 | 1000,8 |
| 4 | Yerbas Buenas | 03-05-2026 00:45 | 2,8 | 93,1 | 0 | 0 | 232 | 0,6 | 1000,7 |
| 3 | Yerbas Buenas | 03-05-2026 00:30 | 2,8 | 93,1 | 0 | 0 | 232 | 0,6 | 1000,9 |
| 2 | Yerbas Buenas | 03-05-2026 00:15 | 2,8 | 92,9 | 0 | 0 | 232 | 0,6 | 1000,5 |
| 1 | Yerbas Buenas | 03-05-2026 00:00 | 3,1 | 92,9 | 0 | 0 | 232 | 0,6 | 1000,5 |